createdAt,value
2017-10-06T01:35:25.107Z,100545
2017-10-06T01:40:29.060Z,100535
2017-10-06T01:45:32.230Z,100544
2017-10-06T01:50:36.178Z,100539
2017-10-06T01:55:39.383Z,100531
2017-10-06T02:00:42.543Z,100531
2017-10-06T02:05:45.747Z,100524
2017-10-06T02:10:48.922Z,100518
2017-10-06T02:15:52.130Z,100513
2017-10-06T02:20:55.304Z,100515
2017-10-06T02:25:58.468Z,100521
2017-10-06T02:31:01.643Z,100521
2017-10-06T02:36:04.828Z,100504
2017-10-06T02:41:08.002Z,100507
2017-10-06T02:46:11.206Z,100513
2017-10-06T02:51:14.701Z,100519
2017-10-06T02:56:17.882Z,100508
2017-10-06T03:01:21.078Z,100519
2017-10-06T03:06:24.354Z,100513
2017-10-06T03:11:28.301Z,100522
2017-10-06T03:16:31.486Z,100515
2017-10-06T03:21:35.503Z,100518
2017-10-06T03:26:38.714Z,100523
2017-10-06T03:31:41.908Z,100517
2017-10-06T03:36:45.072Z,100514
2017-10-06T03:41:48.250Z,100506
2017-10-06T03:46:51.427Z,100515
2017-10-06T03:51:54.605Z,100508
2017-10-06T03:56:57.789Z,100511
2017-10-06T04:02:00.976Z,100512
2017-10-06T04:07:04.910Z,100512
2017-10-06T04:12:08.115Z,100516
2017-10-06T04:17:11.300Z,100515
2017-10-06T04:22:15.257Z,100521
2017-10-06T04:27:18.464Z,100514
2017-10-06T04:32:21.653Z,100516
2017-10-06T04:37:24.854Z,100513
2017-10-06T04:42:28.793Z,100521
2017-10-06T04:47:31.989Z,100511
2017-10-06T04:52:35.149Z,100513
2017-10-06T04:57:38.347Z,100508
2017-10-06T05:02:41.532Z,100512
2017-10-06T05:07:44.743Z,100520
2017-10-06T05:12:47.910Z,100525
2017-10-06T05:17:51.860Z,100514
2017-10-06T05:22:55.041Z,100526
2017-10-06T05:27:58.973Z,100525
2017-10-06T05:33:02.185Z,100529
2017-10-06T05:38:05.397Z,100534
2017-10-06T05:43:08.591Z,100526
2017-10-06T05:48:11.784Z,100533
2017-10-06T05:53:15.918Z,100523
2017-10-06T05:58:19.930Z,100527
2017-10-06T06:03:23.138Z,100526
2017-10-06T06:08:27.114Z,100530
2017-10-06T06:13:30.294Z,100526
2017-10-06T06:18:33.467Z,100522
2017-10-06T06:23:36.692Z,100545
2017-10-06T06:28:40.670Z,100551
2017-10-06T06:33:43.847Z,100542
2017-10-06T06:38:47.033Z,100549
2017-10-06T06:43:50.243Z,100549
2017-10-06T06:48:54.202Z,100551
2017-10-06T06:53:57.374Z,100556
2017-10-06T06:59:00.848Z,100567
2017-10-06T07:04:04.032Z,100556
2017-10-06T07:09:07.219Z,100570
2017-10-06T07:14:10.408Z,100573
2017-10-06T07:19:13.593Z,100583
2017-10-06T07:24:17.538Z,100596
2017-10-06T07:29:21.478Z,100587
2017-10-06T07:34:24.677Z,100593
2017-10-06T07:39:27.854Z,100602
2017-10-06T07:44:31.819Z,100596
2017-10-06T07:49:35.059Z,100602
2017-10-06T07:54:38.250Z,100610
2017-10-06T07:59:41.431Z,100622
2017-10-06T08:04:44.614Z,100615
2017-10-06T08:09:48.565Z,100618
2017-10-06T08:14:51.763Z,100622
2017-10-06T08:19:54.952Z,100630
2017-10-06T08:24:58.906Z,100622
2017-10-06T08:30:02.122Z,100626
2017-10-06T08:35:05.366Z,100615
2017-10-06T08:40:08.695Z,100620
2017-10-06T08:45:22.384Z,100621
2017-10-06T08:50:25.588Z,100623
2017-10-06T08:55:28.846Z,100626
2017-10-06T09:00:32.038Z,100631
2017-10-06T09:05:35.247Z,100625
2017-10-06T09:10:38.464Z,100634
2017-10-06T09:15:42.695Z,100634
2017-10-06T09:20:45.893Z,100626
2017-10-06T09:25:49.068Z,100624
2017-10-06T09:30:52.265Z,100631
2017-10-06T09:35:56.599Z,100642
2017-10-06T09:41:01.376Z,100644
2017-10-06T09:46:04.570Z,100645
2017-10-06T09:51:07.766Z,100642
2017-10-06T09:56:10.982Z,100657
2017-10-06T10:01:14.186Z,100659
2017-10-06T10:06:17.366Z,100665
2017-10-06T10:11:20.567Z,100662
2017-10-06T10:16:26.688Z,100673
2017-10-06T10:21:31.609Z,100675
2017-10-06T10:26:34.857Z,100673
2017-10-06T10:31:38.066Z,100681
2017-10-06T10:36:41.246Z,100681
2017-10-06T10:41:44.442Z,100690
2017-10-06T10:46:47.622Z,100692
2017-10-06T10:51:50.804Z,100697
2017-10-06T10:56:54.782Z,100693
2017-10-06T11:01:58.051Z,100684
2017-10-06T11:07:02.004Z,100690
2017-10-06T11:12:05.354Z,100668
2017-10-06T11:17:08.532Z,100671
2017-10-06T11:22:11.731Z,100671
2017-10-06T11:27:14.940Z,100676
2017-10-06T11:32:18.362Z,100675
2017-10-06T11:37:21.589Z,100673
2017-10-06T11:42:25.680Z,100672
2017-10-06T11:47:32.384Z,100689
2017-10-06T11:52:35.765Z,100673
2017-10-06T11:57:39.099Z,100684
2017-10-06T12:02:42.293Z,100694
2017-10-06T12:07:45.502Z,100715
2017-10-06T12:12:48.686Z,100716
2017-10-06T12:17:51.858Z,100710
2017-10-06T12:22:55.044Z,100706
2017-10-06T12:27:59.379Z,100726
2017-10-06T12:33:02.581Z,100721
2017-10-06T12:38:05.766Z,100716
2017-10-06T12:43:08.955Z,100719
2017-10-06T12:48:12.123Z,100720
2017-10-06T12:53:16.431Z,100711
2017-10-06T12:58:20.636Z,100714
2017-10-06T13:03:23.856Z,100710
2017-10-06T13:08:27.042Z,100720
2017-10-06T13:13:30.235Z,100723
2017-10-06T13:18:34.529Z,100729
2017-10-06T13:23:37.730Z,100731
2017-10-06T13:28:41.015Z,100727
2017-10-06T13:33:44.206Z,100736
2017-10-06T13:38:47.402Z,100743
2017-10-06T13:43:50.593Z,100749
2017-10-06T13:48:54.571Z,100749
2017-10-06T13:53:57.774Z,100760
2017-10-06T13:59:00.961Z,100758
2017-10-06T14:04:04.175Z,100753
2017-10-06T14:09:07.381Z,100762
2017-10-06T14:14:10.596Z,100749
2017-10-06T14:19:13.824Z,100754
2017-10-06T14:24:17.035Z,100734
2017-10-06T14:29:20.276Z,100730
2017-10-06T14:34:24.234Z,100736
2017-10-06T14:39:27.422Z,100757
2017-10-06T14:44:30.645Z,100753
2017-10-06T14:49:34.260Z,100745
2017-10-06T14:54:37.468Z,100751
2017-10-06T14:59:40.678Z,100775
2017-10-06T15:04:43.889Z,100775
2017-10-06T15:09:47.099Z,100769
2017-10-06T15:14:50.830Z,100768
2017-10-06T15:19:54.070Z,100775
2017-10-06T15:24:57.251Z,100784
2017-10-06T15:30:00.495Z,100792
2017-10-06T15:35:04.061Z,100798
2017-10-06T15:40:07.286Z,100791
2017-10-06T15:45:10.488Z,100800
2017-10-06T15:50:13.786Z,100826
2017-10-06T15:55:17.003Z,100819
2017-10-06T16:00:21.095Z,100830
2017-10-06T16:05:25.210Z,100830
2017-10-06T16:10:28.618Z,100839
2017-10-06T16:15:34.455Z,100844
2017-10-06T16:20:38.738Z,100854
2017-10-06T16:25:42.255Z,100855
2017-10-06T16:30:46.383Z,100860
2017-10-06T16:35:49.955Z,100866
2017-10-06T16:40:53.962Z,100876
2017-10-06T16:45:57.955Z,100880
2017-10-06T16:51:01.790Z,100880
2017-10-06T16:56:05.075Z,100869
2017-10-06T17:01:08.302Z,100879
2017-10-06T17:06:11.506Z,100893
2017-10-06T17:11:14.716Z,100886
2017-10-06T17:16:19.050Z,100903
2017-10-06T17:21:22.271Z,100915
2017-10-06T17:26:25.487Z,100923
2017-10-06T17:31:28.689Z,100933
2017-10-06T17:36:31.875Z,100948
2017-10-06T17:41:35.222Z,100955
2017-10-06T17:46:39.183Z,100951
2017-10-06T17:51:42.611Z,100955
2017-10-06T17:56:45.836Z,100970
2017-10-06T18:01:49.113Z,100975
2017-10-06T18:06:52.311Z,100982
2017-10-06T18:11:55.505Z,100991
2017-10-06T18:16:59.453Z,100996
2017-10-06T18:22:02.733Z,101003
2017-10-06T18:27:06.696Z,100991
2017-10-06T18:32:11.192Z,101004
2017-10-06T18:37:15.447Z,101020
2017-10-06T18:42:18.639Z,101020
2017-10-06T18:47:21.862Z,101014
2017-10-06T18:52:25.047Z,101015
2017-10-06T18:57:28.283Z,101018
2017-10-06T19:02:31.479Z,101030
2017-10-06T19:07:34.716Z,101043
2017-10-06T19:12:38.063Z,101046
2017-10-06T19:17:41.259Z,101050
2017-10-06T19:22:45.726Z,101046
2017-10-06T19:27:49.128Z,101056
2017-10-06T19:32:53.125Z,101054
2017-10-06T19:37:57.255Z,101049
2017-10-06T19:43:00.462Z,101048
2017-10-06T19:48:03.689Z,101044
2017-10-06T19:53:07.728Z,101049
2017-10-06T19:58:10.968Z,101067
2017-10-06T20:03:14.200Z,101061
2017-10-06T20:08:17.389Z,101063
2017-10-06T20:13:20.610Z,101060
2017-10-06T20:18:23.827Z,101071
2017-10-06T20:23:27.044Z,101072
2017-10-06T20:28:30.344Z,101072
2017-10-06T20:33:33.564Z,101080
2017-10-06T20:38:37.653Z,101085
2017-10-06T20:43:40.855Z,101084
2017-10-06T20:48:44.082Z,101103
2017-10-06T20:53:47.435Z,101106
2017-10-06T20:58:51.383Z,101117
2017-10-06T21:03:54.652Z,101125
2017-10-06T21:08:58.648Z,101123
2017-10-06T21:14:01.890Z,101126
2017-10-06T21:19:05.889Z,101127
2017-10-06T21:24:09.082Z,101136
2017-10-06T21:29:12.318Z,101142
2017-10-06T21:34:15.574Z,101145
2017-10-06T21:39:19.523Z,101146
2017-10-06T21:44:22.694Z,101152
2017-10-06T21:49:25.906Z,101156
2017-10-06T21:54:29.143Z,101145
2017-10-06T21:59:32.461Z,101156
2017-10-06T22:04:35.692Z,101161
2017-10-06T22:09:39.618Z,101168
2017-10-06T22:14:43.549Z,101162
2017-10-06T22:19:48.083Z,101164
2017-10-06T22:24:52.287Z,101155
2017-10-06T22:29:55.490Z,101153
2017-10-06T22:34:58.699Z,101152
2017-10-06T22:40:01.955Z,101164
2017-10-06T22:45:05.896Z,101163
2017-10-06T22:50:09.109Z,101171
2017-10-06T22:55:12.304Z,101164
2017-10-06T23:00:15.529Z,101165
2017-10-06T23:05:18.725Z,101174
2017-10-06T23:10:21.926Z,101176
2017-10-06T23:15:25.120Z,101186
2017-10-06T23:20:28.473Z,101188
2017-10-06T23:25:31.698Z,101186
2017-10-06T23:30:35.350Z,101198
2017-10-06T23:35:38.550Z,101207
2017-10-06T23:40:41.756Z,101206
2017-10-06T23:45:44.956Z,101199
2017-10-06T23:50:48.916Z,101204
2017-10-06T23:55:52.108Z,101209
